Time;durP1;ratioP1;P1;durP2;ratioP2;P2;SDS_P1;SDS_P2;PMS_P1;PMS_P2;Temp;Humidity;BMP_temperature;BMP_pressure;BME280_temperature;BME280_humidity;BME280_pressure;Samples;Min_cycle;Max_cycle;Signal;HPM_P1;HPM_P2
2023/09/13 00:01:56;;;;;;;;;;;;;;;;;;5112841;28;907;-70
2023/09/13 00:04:21;;;;;;;;;;;;;;;;;;5111556;28;1243;-70
2023/09/13 00:06:47;;;;;;;;;;;;;;;;;;5112741;28;990;-70
2023/09/13 00:09:12;;;;;;;;;;;;;;;;;;5112667;28;1909;-70
2023/09/13 00:11:37;;;;;;;;;;;;;;;;;;5112164;28;820;-69
2023/09/13 00:14:03;;;;;;;;;;;;;;;;;;5112949;28;903;-69
2023/09/13 00:16:28;;;;;;;;;;;;;;;;;;5112512;28;836;-71
2023/09/13 00:18:53;;;;;;;;;;;;;;;;;;5111091;28;1279;-70
2023/09/13 00:21:18;;;;;;;;;;;;;;;;;;5113310;28;931;-71
2023/09/13 00:23:44;;;;;;;;;;;;;;;;;;5112734;27;847;-70
2023/09/13 00:26:11;;;;;;;;;;;;;;;;;;5093502;28;1318;-70
2023/09/13 00:28:36;;;;;;;;;;;;;;;;;;5087445;28;1971;-71
2023/09/13 00:31:01;;;;;;;;;;;;;;;;;;5093577;28;1166;-70
2023/09/13 00:33:29;;;;;;;;;;;;;;;;;;5102475;28;1192;-70
2023/09/13 00:35:58;;;;;;;;;;;;;;;;;;5108352;28;1104;-70
2023/09/13 00:38:23;;;;;;;;;;;;;;;;;;5110801;28;1186;-70
2023/09/13 00:40:48;;;;;;;;;;;;;;;;;;5111835;28;927;-71
2023/09/13 00:43:13;;;;;;;;;;;;;;;;;;5110299;28;816;-71
2023/09/13 00:45:39;;;;;;;;;;;;;;;;;;5110382;28;1313;-71
2023/09/13 00:48:04;;;;;;;;;;;;;;;;;;5111825;28;879;-71
2023/09/13 00:50:30;;;;;;;;;;;;;;;;;;5110308;28;1955;-71
2023/09/13 00:52:56;;;;;;;;;;;;;;;;;;5110076;28;769;-71
2023/09/13 00:55:22;;;;;;;;;;;;;;;;;;5112400;28;848;-71
2023/09/13 00:57:49;;;;;;;;;;;;;;;;;;5110971;28;1233;-71
2023/09/13 01:00:14;;;;;;;;;;;;;;;;;;5111339;28;953;-71
2023/09/13 01:02:40;;;;;;;;;;;;;;;;;;5110030;28;861;-71
2023/09/13 01:05:07;;;;;;;;;;;;;;;;;;5111857;28;944;-70
2023/09/13 01:07:32;;;;;;;;;;;;;;;;;;5112020;28;816;-70
2023/09/13 01:09:58;;;;;;;;;;;;;;;;;;5111313;28;1913;-71
2023/09/13 01:12:23;;;;;;;;;;;;;;;;;;5111599;28;919;-70
2023/09/13 01:14:49;;;;;;;;;;;;;;;;;;5111791;28;892;-70
2023/09/13 01:17:16;;;;;;;;;;;;;;;;;;5110988;28;1189;-70
2023/09/13 01:20:01;;;;;;;;;;;;;;;;;;5110936;28;1413;-70
2023/09/13 01:22:37;;;;;;;;;;;;;;;;;;5112856;28;820;-70
2023/09/13 01:25:28;;;;;;;;;;;;;;;;;;5112587;28;962;-70
2023/09/13 01:28:13;;;;;;;;;;;;;;;;;;5110973;28;888;-70
2023/09/13 01:30:39;;;;;;;;;;;;;;;;;;5100493;28;1882;-70
2023/09/13 01:33:05;;;;;;;;;;;;;;;;;;5112330;28;1045;-70
2023/09/13 01:35:30;;;;;;;;;;;;;;;;;;5110870;28;1312;-70
2023/09/13 01:37:55;;;;;;;;;;;;;;;;;;5111187;28;935;-70
2023/09/13 01:40:22;;;;;;;;;;;;;;;;;;5105830;28;1214;-71
2023/09/13 01:42:48;;;;;;;;;;;;;;;;;;5098870;28;1187;-70
2023/09/13 01:45:13;;;;;;;;;;;;;;;;;;5095210;28;1187;-70
2023/09/13 01:47:41;;;;;;;;;;;;;;;;;;5103264;28;1206;-70
2023/09/13 01:50:07;;;;;;;;;;;;;;;;;;5111370;28;1980;-70
2023/09/13 01:52:32;;;;;;;;;;;;;;;;;;5110536;28;1194;-70
2023/09/13 01:54:58;;;;;;;;;;;;;;;;;;5111828;28;998;-70
2023/09/13 01:57:23;;;;;;;;;;;;;;;;;;5093593;28;1809;-70
2023/09/13 01:59:48;;;;;;;;;;;;;;;;;;5110069;28;1230;-70
2023/09/13 02:02:13;;;;;;;;;;;;;;;;;;5111723;28;904;-70
2023/09/13 02:04:38;;;;;;;;;;;;;;;;;;5111077;28;1022;-70
2023/09/13 02:07:04;;;;;;;;;;;;;;;;;;5112479;28;917;-70
2023/09/13 02:09:29;;;;;;;;;;;;;;;;;;5110498;28;1910;-70
2023/09/13 02:11:54;;;;;;;;;;;;;;;;;;5115050;28;828;-70
2023/09/13 02:14:20;;;;;;;;;;;;;;;;;;5114996;28;884;-70
2023/09/13 02:16:45;;;;;;;;;;;;;;;;;;5113889;28;871;-70
2023/09/13 02:19:10;;;;;;;;;;;;;;;;;;5113016;28;1411;-70
2023/09/13 02:21:35;;;;;;;;;;;;;;;;;;5113394;28;1198;-70
2023/09/13 02:24:01;;;;;;;;;;;;;;;;;;5114163;28;987;-70
2023/09/13 02:26:26;;;;;;;;;;;;;;;;;;5114545;28;824;-70
2023/09/13 02:28:52;;;;;;;;;;;;;;;;;;5096022;28;1959;-70
2023/09/13 02:31:21;;;;;;;;;;;;;;;;;;5114496;28;1006;-70
2023/09/13 02:33:46;;;;;;;;;;;;;;;;;;5112775;28;1311;-71
2023/09/13 02:36:11;;;;;;;;;;;;;;;;;;5114193;28;919;-70
2023/09/13 02:38:36;;;;;;;;;;;;;;;;;;5114664;28;828;-70
2023/09/13 02:41:03;;;;;;;;;;;;;;;;;;5112447;28;1337;-70
2023/09/13 02:43:28;;;;;;;;;;;;;;;;;;5113029;28;911;-70
2023/09/13 02:45:53;;;;;;;;;;;;;;;;;;5113947;28;1375;-70
2023/09/13 02:48:18;;;;;;;;;;;;;;;;;;5112874;28;926;-70
2023/09/13 02:50:44;;;;;;;;;;;;;;;;;;5113949;28;1939;-70
2023/09/13 02:53:09;;;;;;;;;;;;;;;;;;5113504;28;1185;-71
2023/09/13 02:55:34;;;;;;;;;;;;;;;;;;5113793;28;817;-70
2023/09/13 02:57:59;;;;;;;;;;;;;;;;;;5111470;28;1272;-70
2023/09/13 03:00:24;;;;;;;;;;;;;;;;;;5114439;28;920;-70
2023/09/13 03:02:50;;;;;;;;;;;;;;;;;;5114490;28;892;-70
2023/09/13 03:05:15;;;;;;;;;;;;;;;;;;5114313;28;944;-70
2023/09/13 03:07:41;;;;;;;;;;;;;;;;;;5114379;28;958;-70
2023/09/13 03:10:06;;;;;;;;;;;;;;;;;;5113392;28;1965;-70
2023/09/13 03:12:33;;;;;;;;;;;;;;;;;;5112962;28;1462;-70
2023/09/13 03:14:58;;;;;;;;;;;;;;;;;;5114160;28;883;-71
2023/09/13 03:17:24;;;;;;;;;;;;;;;;;;5112774;28;1206;-70
2023/09/13 03:19:49;;;;;;;;;;;;;;;;;;5114157;28;845;-70
2023/09/13 03:22:14;;;;;;;;;;;;;;;;;;5112781;28;1211;-70
2023/09/13 03:24:39;;;;;;;;;;;;;;;;;;5114997;28;891;-70
2023/09/13 03:27:07;;;;;;;;;;;;;;;;;;5114912;28;1153;-70
2023/09/13 03:29:32;;;;;;;;;;;;;;;;;;5114336;28;1955;-70
2023/09/13 03:31:57;;;;;;;;;;;;;;;;;;5114615;28;883;-70
2023/09/13 03:34:23;;;;;;;;;;;;;;;;;;5113119;28;888;-70
2023/09/13 03:36:48;;;;;;;;;;;;;;;;;;5114398;28;626;-70
2023/09/13 03:39:14;;;;;;;;;;;;;;;;;;5114595;28;859;-70
2023/09/13 03:41:39;;;;;;;;;;;;;;;;;;5113675;28;1317;-70
2023/09/13 03:44:04;;;;;;;;;;;;;;;;;;5113024;28;943;-70
2023/09/13 03:46:30;;;;;;;;;;;;;;;;;;5111518;28;849;-70
2023/09/13 03:48:55;;;;;;;;;;;;;;;;;;5112858;28;1906;-70
2023/09/13 03:51:20;;;;;;;;;;;;;;;;;;5111669;28;1281;-70
2023/09/13 03:53:45;;;;;;;;;;;;;;;;;;5113115;28;884;-70
2023/09/13 03:56:11;;;;;;;;;;;;;;;;;;5111387;28;1307;-70
2023/09/13 03:58:36;;;;;;;;;;;;;;;;;;5110965;28;1077;-70
2023/09/13 04:01:04;;;;;;;;;;;;;;;;;;5112424;28;896;-70
2023/09/13 04:03:30;;;;;;;;;;;;;;;;;;5112281;28;962;-70
2023/09/13 04:05:55;;;;;;;;;;;;;;;;;;5112149;28;847;-70
2023/09/13 04:08:21;;;;;;;;;;;;;;;;;;5112628;28;856;-70
2023/09/13 04:10:46;;;;;;;;;;;;;;;;;;5112203;28;1951;-70
2023/09/13 04:13:11;;;;;;;;;;;;;;;;;;5112509;28;892;-70
2023/09/13 04:15:36;;;;;;;;;;;;;;;;;;5112438;28;899;-70
2023/09/13 04:18:03;;;;;;;;;;;;;;;;;;5110756;28;1003;-70
2023/09/13 04:20:28;;;;;;;;;;;;;;;;;;5093988;28;908;-71
2023/09/13 04:22:54;;;;;;;;;;;;;;;;;;5109557;28;1076;-71
2023/09/13 04:25:19;;;;;;;;;;;;;;;;;;5111092;28;1019;-71
2023/09/13 04:27:44;;;;;;;;;;;;;;;;;;5111829;28;931;-71
2023/09/13 04:30:10;;;;;;;;;;;;;;;;;;5110862;28;1979;-70
2023/09/13 04:32:35;;;;;;;;;;;;;;;;;;5110475;28;1511;-70
2023/09/13 04:35:00;;;;;;;;;;;;;;;;;;5109973;28;983;-70
2023/09/13 04:37:27;;;;;;;;;;;;;;;;;;5111081;28;1553;-71
2023/09/13 04:39:52;;;;;;;;;;;;;;;;;;5110912;28;1309;-70
2023/09/13 04:42:17;;;;;;;;;;;;;;;;;;5110837;28;884;-70
2023/09/13 04:44:43;;;;;;;;;;;;;;;;;;5111972;28;836;-71
2023/09/13 04:47:08;;;;;;;;;;;;;;;;;;5112294;28;855;-70
2023/09/13 04:49:35;;;;;;;;;;;;;;;;;;5111521;28;1970;-71
2023/09/13 04:52:02;;;;;;;;;;;;;;;;;;5111737;28;851;-70
2023/09/13 04:54:27;;;;;;;;;;;;;;;;;;5112019;28;872;-71
2023/09/13 04:56:53;;;;;;;;;;;;;;;;;;5110297;28;875;-71
2023/09/13 04:59:18;;;;;;;;;;;;;;;;;;5110132;28;1398;-71
2023/09/13 05:01:44;;;;;;;;;;;;;;;;;;5111176;28;899;-70
2023/09/13 05:04:09;;;;;;;;;;;;;;;;;;5110859;28;1228;-71
2023/09/13 05:06:35;;;;;;;;;;;;;;;;;;5112598;28;1057;-70
2023/09/13 05:09:00;;;;;;;;;;;;;;;;;;5094235;28;1905;-71
2023/09/13 05:11:25;;;;;;;;;;;;;;;;;;5112619;28;844;-71
2023/09/13 05:14:07;;;;;;;;;;;;;;;;;;5113277;28;911;-70
2023/09/13 05:16:32;;;;;;;;;;;;;;;;;;5111563;28;1131;-70
2023/09/13 05:18:57;;;;;;;;;;;;;;;;;;5112145;28;901;-71
2023/09/13 05:21:23;;;;;;;;;;;;;;;;;;5111860;28;1179;-71
2023/09/13 05:23:48;;;;;;;;;;;;;;;;;;5094330;28;1199;-71
2023/09/13 05:26:13;;;;;;;;;;;;;;;;;;5110947;28;871;-71
2023/09/13 05:28:38;;;;;;;;;;;;;;;;;;5111898;28;867;-71
2023/09/13 05:31:04;;;;;;;;;;;;;;;;;;5111975;28;1890;-71
2023/09/13 05:33:29;;;;;;;;;;;;;;;;;;5111857;28;888;-71
2023/09/13 05:35:54;;;;;;;;;;;;;;;;;;5110087;28;907;-71
2023/09/13 05:38:20;;;;;;;;;;;;;;;;;;5111341;28;737;-71
2023/09/13 05:40:45;;;;;;;;;;;;;;;;;;5111004;28;922;-71
2023/09/13 05:43:11;;;;;;;;;;;;;;;;;;5111694;28;915;-72
2023/09/13 05:45:36;;;;;;;;;;;;;;;;;;5112756;28;1041;-73
2023/09/13 05:48:02;;;;;;;;;;;;;;;;;;5115054;28;1050;-73
2023/09/13 05:50:27;;;;;;;;;;;;;;;;;;5115231;28;1898;-73
2023/09/13 05:52:53;;;;;;;;;;;;;;;;;;5115125;28;919;-73
2023/09/13 05:55:18;;;;;;;;;;;;;;;;;;5115190;28;875;-72
2023/09/13 05:57:43;;;;;;;;;;;;;;;;;;5113715;28;844;-72
2023/09/13 06:00:09;;;;;;;;;;;;;;;;;;5113437;28;1121;-73
2023/09/13 06:02:35;;;;;;;;;;;;;;;;;;5114978;28;1294;-73
2023/09/13 06:05:00;;;;;;;;;;;;;;;;;;5114586;28;1069;-72
2023/09/13 06:07:26;;;;;;;;;;;;;;;;;;5115450;28;855;-73
2023/09/13 06:09:51;;;;;;;;;;;;;;;;;;5114424;28;1906;-73
2023/09/13 06:12:16;;;;;;;;;;;;;;;;;;5115013;27;749;-72
2023/09/13 06:14:43;;;;;;;;;;;;;;;;;;5113339;28;864;-73
2023/09/13 06:17:08;;;;;;;;;;;;;;;;;;5112805;28;1345;-72
2023/09/13 06:19:34;;;;;;;;;;;;;;;;;;5112944;28;1460;-72
2023/09/13 06:21:59;;;;;;;;;;;;;;;;;;5113319;28;848;-72
2023/09/13 06:24:24;;;;;;;;;;;;;;;;;;5115386;28;907;-72
2023/09/13 06:26:50;;;;;;;;;;;;;;;;;;5114341;28;619;-72
2023/09/13 06:29:15;;;;;;;;;;;;;;;;;;5114522;28;1903;-71
2023/09/13 06:31:40;;;;;;;;;;;;;;;;;;5113031;28;1105;-71
2023/09/13 06:34:05;;;;;;;;;;;;;;;;;;5112986;28;1022;-72
2023/09/13 06:36:31;;;;;;;;;;;;;;;;;;5113036;28;848;-72
2023/09/13 06:38:56;;;;;;;;;;;;;;;;;;5114534;28;788;-72
2023/09/13 06:41:21;;;;;;;;;;;;;;;;;;5113406;28;1239;-71
2023/09/13 06:43:46;;;;;;;;;;;;;;;;;;5112985;28;887;-71
2023/09/13 06:46:12;;;;;;;;;;;;;;;;;;5115313;28;915;-72
2023/09/13 06:48:37;;;;;;;;;;;;;;;;;;5115855;28;773;-71
2023/09/13 06:51:03;;;;;;;;;;;;;;;;;;5113617;28;1966;-71
2023/09/13 06:53:28;;;;;;;;;;;;;;;;;;5114269;28;820;-72
2023/09/13 06:55:54;;;;;;;;;;;;;;;;;;5095614;28;1215;-71
2023/09/13 06:58:19;;;;;;;;;;;;;;;;;;5113780;28;891;-71
2023/09/13 07:00:44;;;;;;;;;;;;;;;;;;5114171;28;1166;-71
2023/09/13 07:03:09;;;;;;;;;;;;;;;;;;5111583;28;1167;-71
2023/09/13 07:05:34;;;;;;;;;;;;;;;;;;5091327;28;1277;-71
2023/09/13 07:08:00;;;;;;;;;;;;;;;;;;5092248;28;1211;-71
2023/09/13 07:10:26;;;;;;;;;;;;;;;;;;5092267;28;1898;-72
2023/09/13 07:12:51;;;;;;;;;;;;;;;;;;5091374;28;1274;-71
2023/09/13 07:15:16;;;;;;;;;;;;;;;;;;5092097;28;911;-71
2023/09/13 07:17:42;;;;;;;;;;;;;;;;;;5091889;28;836;-71
2023/09/13 07:20:08;;;;;;;;;;;;;;;;;;5074267;28;1357;-71
2023/09/13 07:22:33;;;;;;;;;;;;;;;;;;5092477;28;1171;-71
2023/09/13 07:24:58;;;;;;;;;;;;;;;;;;5090891;28;1124;-71
2023/09/13 07:27:23;;;;;;;;;;;;;;;;;;5093594;28;836;-71
2023/09/13 07:29:49;;;;;;;;;;;;;;;;;;5092203;28;1944;-71
2023/09/13 07:32:16;;;;;;;;;;;;;;;;;;5075046;28;1247;-71
2023/09/13 07:34:41;;;;;;;;;;;;;;;;;;5091142;28;1333;-71
2023/09/13 07:37:06;;;;;;;;;;;;;;;;;;5091591;28;1189;-71
2023/09/13 07:39:32;;;;;;;;;;;;;;;;;;5091070;28;809;-72
2023/09/13 07:41:58;;;;;;;;;;;;;;;;;;5090845;28;1270;-71
2023/09/13 07:44:23;;;;;;;;;;;;;;;;;;5091986;28;867;-71
2023/09/13 07:46:48;;;;;;;;;;;;;;;;;;5090642;28;1181;-71
2023/09/13 07:49:14;;;;;;;;;;;;;;;;;;5092780;28;1899;-71
2023/09/13 07:51:39;;;;;;;;;;;;;;;;;;5092580;28;927;-71
2023/09/13 07:54:07;;;;;;;;;;;;;;;;;;5073956;28;1577;-71
2023/09/13 07:56:33;;;;;;;;;;;;;;;;;;5092780;28;872;-71
2023/09/13 07:58:59;;;;;;;;;;;;;;;;;;5091662;28;1089;-71
2023/09/13 08:01:24;;;;;;;;;;;;;;;;;;5092500;28;816;-72
2023/09/13 08:03:49;;;;;;;;;;;;;;;;;;5091844;28;994;-71
2023/09/13 08:06:15;;;;;;;;;;;;;;;;;;5091138;28;1281;-71
2023/09/13 08:08:40;;;;;;;;;;;;;;;;;;5090410;28;800;-70
2023/09/13 08:11:05;;;;;;;;;;;;;;;;;;5090977;28;1968;-71
2023/09/13 08:13:31;;;;;;;;;;;;;;;;;;5072295;28;1276;-72
2023/09/13 08:15:57;;;;;;;;;;;;;;;;;;5090023;28;887;-72
2023/09/13 08:18:22;;;;;;;;;;;;;;;;;;5091087;28;895;-71
2023/09/13 08:20:48;;;;;;;;;;;;;;;;;;5090517;28;793;-72
2023/09/13 08:23:13;;;;;;;;;;;;;;;;;;5091345;28;899;-71
2023/09/13 08:25:39;;;;;;;;;;;;;;;;;;5091288;28;954;-73
2023/09/13 08:28:04;;;;;;;;;;;;;;;;;;5091480;28;1236;-71
2023/09/13 08:30:30;;;;;;;;;;;;;;;;;;5091982;28;1901;-71
2023/09/13 08:32:55;;;;;;;;;;;;;;;;;;5092600;28;1038;-72
2023/09/13 08:35:20;;;;;;;;;;;;;;;;;;5093260;28;903;-72
2023/09/13 08:37:46;;;;;;;;;;;;;;;;;;5072983;28;1200;-72
2023/09/13 08:40:11;;;;;;;;;;;;;;;;;;5089787;28;1163;-71
2023/09/13 08:42:37;;;;;;;;;;;;;;;;;;5098399;28;1163;-70
2023/09/13 08:45:03;;;;;;;;;;;;;;;;;;5103171;28;1148;-70
2023/09/13 08:47:31;;;;;;;;;;;;;;;;;;5092433;28;1097;-70
2023/09/13 08:49:58;;;;;;;;;;;;;;;;;;5093318;28;1889;-71
2023/09/13 08:52:24;;;;;;;;;;;;;;;;;;5094258;28;923;-70
2023/09/13 08:54:49;;;;;;;;;;;;;;;;;;5093554;28;1018;-71
2023/09/13 08:57:15;;;;;;;;;;;;;;;;;;5091800;28;837;-72
2023/09/13 08:59:41;;;;;;;;;;;;;;;;;;5089767;28;1054;-71
2023/09/13 09:02:10;;;;;;;;;;;;;;;;;;5091091;28;1005;-71
2023/09/13 09:04:36;;;;;;;;;;;;;;;;;;5091827;28;1010;-71
2023/09/13 09:07:01;;;;;;;;;;;;;;;;;;5089071;28;1182;-71
2023/09/13 09:09:31;;;;;;;;;;;;;;;;;;5091258;28;1960;-71
2023/09/13 09:11:59;;;;;;;;;;;;;;;;;;5089356;28;927;-71
2023/09/13 09:14:27;;;;;;;;;;;;;;;;;;5090792;28;919;-71
2023/09/13 09:16:54;;;;;;;;;;;;;;;;;;5072411;28;1612;-71
2023/09/13 09:19:20;;;;;;;;;;;;;;;;;;5091816;28;1144;-71
2023/09/13 09:21:45;;;;;;;;;;;;;;;;;;5095072;28;800;-71
2023/09/13 09:24:11;;;;;;;;;;;;;;;;;;5093995;28;951;-71
2023/09/13 09:26:36;;;;;;;;;;;;;;;;;;5095013;28;845;-71
2023/09/13 09:29:11;;;;;;;;;;;;;;;;;;5093703;28;1932;-71
2023/09/13 09:31:37;;;;;;;;;;;;;;;;;;5093976;28;903;-71
2023/09/13 09:34:03;;;;;;;;;;;;;;;;;;5093021;28;1337;-71
2023/09/13 09:36:34;;;;;;;;;;;;;;;;;;5094366;28;1237;-71
2023/09/13 09:39:00;;;;;;;;;;;;;;;;;;5094685;28;880;-71
2023/09/13 09:41:30;;;;;;;;;;;;;;;;;;5095260;28;863;-71
2023/09/13 09:43:55;;;;;;;;;;;;;;;;;;5094647;28;796;-71
2023/09/13 09:46:21;;;;;;;;;;;;;;;;;;5093403;28;962;-71
2023/09/13 09:48:47;;;;;;;;;;;;;;;;;;5094836;28;860;-72
2023/09/13 09:51:13;;;;;;;;;;;;;;;;;;5076140;28;1972;-71
2023/09/13 09:53:39;;;;;;;;;;;;;;;;;;5093777;28;1206;-71
2023/09/13 09:56:04;;;;;;;;;;;;;;;;;;5092977;28;1302;-72
2023/09/13 09:58:29;;;;;;;;;;;;;;;;;;5095255;28;911;-71
2023/09/13 10:00:55;;;;;;;;;;;;;;;;;;5094546;28;1211;-72
2023/09/13 10:03:21;;;;;;;;;;;;;;;;;;5094659;28;1378;-71
2023/09/13 10:06:06;;;;;;;;;;;;;;;;;;5094596;28;851;-71
2023/09/13 10:08:38;;;;;;;;;;;;;;;;;;5094964;28;789;-72
2023/09/13 10:11:03;;;;;;;;;;;;;;;;;;5094100;28;1989;-72
2023/09/13 10:13:32;;;;;;;;;;;;;;;;;;5095307;28;754;-72
2023/09/13 10:15:58;;;;;;;;;;;;;;;;;;5094800;28;939;-71
2023/09/13 10:18:25;;;;;;;;;;;;;;;;;;5094027;28;1214;-71
2023/09/13 10:20:51;;;;;;;;;;;;;;;;;;5094585;28;856;-71
2023/09/13 10:23:17;;;;;;;;;;;;;;;;;;5095418;28;829;-71
2023/09/13 10:25:44;;;;;;;;;;;;;;;;;;5095290;28;841;-71
2023/09/13 10:28:12;;;;;;;;;;;;;;;;;;5075120;28;1337;-71
2023/09/13 10:30:40;;;;;;;;;;;;;;;;;;5093942;28;1962;-71
2023/09/13 10:33:06;;;;;;;;;;;;;;;;;;5092727;28;781;-72
2023/09/13 10:35:32;;;;;;;;;;;;;;;;;;5093578;28;1066;-71
2023/09/13 10:38:11;;;;;;;;;;;;;;;;;;5092401;28;836;-71
2023/09/13 10:40:41;;;;;;;;;;;;;;;;;;5091336;28;1322;-71
2023/09/13 10:43:08;;;;;;;;;;;;;;;;;;5093963;28;844;-71
2023/09/13 10:45:34;;;;;;;;;;;;;;;;;;5094933;28;1254;-72
2023/09/13 10:47:59;;;;;;;;;;;;;;;;;;5092994;28;1147;-72
2023/09/13 10:50:25;;;;;;;;;;;;;;;;;;5092522;28;1911;-72
2023/09/13 10:52:50;;;;;;;;;;;;;;;;;;5093259;28;1000;-72
2023/09/13 10:55:16;;;;;;;;;;;;;;;;;;5093447;28;825;-71
2023/09/13 10:57:41;;;;;;;;;;;;;;;;;;5093633;28;821;-71
2023/09/13 11:00:10;;;;;;;;;;;;;;;;;;5093558;28;1231;-70
2023/09/13 11:02:37;;;;;;;;;;;;;;;;;;5093396;28;856;-72
2023/09/13 11:05:03;;;;;;;;;;;;;;;;;;5092926;28;952;-71
2023/09/13 11:07:29;;;;;;;;;;;;;;;;;;5093670;28;757;-72
2023/09/13 11:10:02;;;;;;;;;;;;;;;;;;5092822;28;1973;-71
2023/09/13 11:12:27;;;;;;;;;;;;;;;;;;5093516;28;847;-72
2023/09/13 11:14:53;;;;;;;;;;;;;;;;;;5091668;28;1164;-71
2023/09/13 11:17:39;;;;;;;;;;;;;;;;;;5093405;28;907;-71
2023/09/13 11:20:19;;;;;;;;;;;;;;;;;;5092500;28;808;-71
2023/09/13 11:22:58;;;;;;;;;;;;;;;;;;5092947;28;804;-71
2023/09/13 11:25:23;;;;;;;;;;;;;;;;;;5091981;28;1378;-71
2023/09/13 11:27:49;;;;;;;;;;;;;;;;;;5093172;28;844;-72
2023/09/13 11:30:14;;;;;;;;;;;;;;;;;;5092596;28;1961;-71
2023/09/13 11:32:42;;;;;;;;;;;;;;;;;;5092972;28;1018;-71
2023/09/13 11:35:10;;;;;;;;;;;;;;;;;;5092513;28;904;-71
2023/09/13 11:37:35;;;;;;;;;;;;;;;;;;5093049;28;915;-71
2023/09/13 11:40:09;;;;;;;;;;;;;;;;;;5092614;28;1082;-71
2023/09/13 11:42:34;;;;;;;;;;;;;;;;;;5093594;28;841;-71
2023/09/13 11:45:00;;;;;;;;;;;;;;;;;;5092814;28;1074;-71
2023/09/13 11:47:26;;;;;;;;;;;;;;;;;;5093437;28;978;-72
2023/09/13 11:49:55;;;;;;;;;;;;;;;;;;5092532;28;1910;-71
2023/09/13 11:52:21;;;;;;;;;;;;;;;;;;5093032;28;849;-71
2023/09/13 11:54:54;;;;;;;;;;;;;;;;;;5093072;28;849;-72
2023/09/13 11:57:19;;;;;;;;;;;;;;;;;;5093295;28;1077;-72
2023/09/13 11:59:45;;;;;;;;;;;;;;;;;;5092733;28;1309;-72
2023/09/13 12:02:11;;;;;;;;;;;;;;;;;;5091876;28;971;-72
2023/09/13 12:04:37;;;;;;;;;;;;;;;;;;5092171;28;1002;-72
2023/09/13 12:07:08;;;;;;;;;;;;;;;;;;5091998;28;868;-72
2023/09/13 12:09:34;;;;;;;;;;;;;;;;;;5092394;28;1941;-72
2023/09/13 12:11:59;;;;;;;;;;;;;;;;;;5091403;28;888;-72
2023/09/13 12:14:25;;;;;;;;;;;;;;;;;;5093305;28;891;-72
2023/09/13 12:16:51;;;;;;;;;;;;;;;;;;5092604;28;901;-72
2023/09/13 12:19:16;;;;;;;;;;;;;;;;;;5092836;28;816;-72
2023/09/13 12:21:45;;;;;;;;;;;;;;;;;;5092649;28;828;-72
2023/09/13 12:24:13;;;;;;;;;;;;;;;;;;5092291;28;825;-72
2023/09/13 12:26:39;;;;;;;;;;;;;;;;;;5091248;28;891;-72
2023/09/13 12:29:05;;;;;;;;;;;;;;;;;;5089944;28;1906;-72
2023/09/13 12:31:30;;;;;;;;;;;;;;;;;;5091974;28;837;-72
2023/09/13 12:33:56;;;;;;;;;;;;;;;;;;5091871;28;848;-72
2023/09/13 12:36:22;;;;;;;;;;;;;;;;;;5091720;28;825;-71
2023/09/13 12:38:48;;;;;;;;;;;;;;;;;;5091926;28;836;-72
2023/09/13 12:41:20;;;;;;;;;;;;;;;;;;5091101;28;884;-71
2023/09/13 12:43:49;;;;;;;;;;;;;;;;;;5091346;28;837;-72
2023/09/13 12:46:18;;;;;;;;;;;;;;;;;;5091632;28;887;-71
2023/09/13 12:48:44;;;;;;;;;;;;;;;;;;5092155;28;849;-72
2023/09/13 12:51:10;;;;;;;;;;;;;;;;;;5090892;28;1976;-73
2023/09/13 12:53:36;;;;;;;;;;;;;;;;;;5090292;28;1195;-72
2023/09/13 12:56:02;;;;;;;;;;;;;;;;;;5089175;28;950;-73
2023/09/13 12:58:27;;;;;;;;;;;;;;;;;;5090988;28;1037;-73
2023/09/13 13:00:55;;;;;;;;;;;;;;;;;;5072683;28;1284;-71
2023/09/13 13:03:24;;;;;;;;;;;;;;;;;;5091083;28;1125;-71
2023/09/13 13:05:50;;;;;;;;;;;;;;;;;;5091266;28;869;-72
2023/09/13 13:08:16;;;;;;;;;;;;;;;;;;5091167;28;907;-72
2023/09/13 13:10:51;;;;;;;;;;;;;;;;;;5091479;28;1896;-71
2023/09/13 13:13:16;;;;;;;;;;;;;;;;;;5089878;28;1153;-71
2023/09/13 13:15:41;;;;;;;;;;;;;;;;;;5089909;28;1151;-71
2023/09/13 13:18:09;;;;;;;;;;;;;;;;;;5089440;28;962;-71
2023/09/13 13:20:34;;;;;;;;;;;;;;;;;;5091906;28;962;-71
2023/09/13 13:22:59;;;;;;;;;;;;;;;;;;5091972;28;903;-71
2023/09/13 13:25:24;;;;;;;;;;;;;;;;;;5091598;28;1033;-72
2023/09/13 13:27:51;;;;;;;;;;;;;;;;;;5091585;28;845;-72
2023/09/13 13:30:16;;;;;;;;;;;;;;;;;;5091631;28;1914;-71
2023/09/13 13:32:42;;;;;;;;;;;;;;;;;;5090242;28;817;-71
2023/09/13 13:35:07;;;;;;;;;;;;;;;;;;5091421;28;817;-71
2023/09/13 13:37:33;;;;;;;;;;;;;;;;;;5089795;28;824;-71
2023/09/13 13:39:58;;;;;;;;;;;;;;;;;;5089499;28;875;-71
2023/09/13 13:42:23;;;;;;;;;;;;;;;;;;5090862;28;912;-71
2023/09/13 13:44:48;;;;;;;;;;;;;;;;;;5090740;28;1006;-71
2023/09/13 13:47:14;;;;;;;;;;;;;;;;;;5089113;28;1490;-71
2023/09/13 13:49:39;;;;;;;;;;;;;;;;;;5090874;28;1902;-71
2023/09/13 13:52:05;;;;;;;;;;;;;;;;;;5089511;28;829;-72
2023/09/13 13:54:30;;;;;;;;;;;;;;;;;;5091103;28;915;-71
2023/09/13 13:56:55;;;;;;;;;;;;;;;;;;5090992;28;892;-71
2023/09/13 13:59:21;;;;;;;;;;;;;;;;;;5091787;28;1215;-71
2023/09/13 14:01:46;;;;;;;;;;;;;;;;;;5090714;28;1329;-72
2023/09/13 14:04:11;;;;;;;;;;;;;;;;;;5091042;28;962;-71
2023/09/13 14:06:37;;;;;;;;;;;;;;;;;;5093090;28;971;-72
2023/09/13 14:09:05;;;;;;;;;;;;;;;;;;5095113;28;899;-72
2023/09/13 14:11:30;;;;;;;;;;;;;;;;;;5095366;28;966;-72
2023/09/13 14:13:56;;;;;;;;;;;;;;;;;;5095463;28;888;-71
2023/09/13 14:16:21;;;;;;;;;;;;;;;;;;5094155;28;1269;-71
2023/09/13 14:18:46;;;;;;;;;;;;;;;;;;5094084;28;1368;-71
2023/09/13 14:21:11;;;;;;;;;;;;;;;;;;5093457;28;1216;-72
2023/09/13 14:23:37;;;;;;;;;;;;;;;;;;5094025;28;1153;-71
2023/09/13 14:26:02;;;;;;;;;;;;;;;;;;5094468;28;871;-71
2023/09/13 14:28:31;;;;;;;;;;;;;;;;;;5093645;28;1491;-71
2023/09/13 14:30:58;;;;;;;;;;;;;;;;;;5093293;28;1957;-71
2023/09/13 14:33:25;;;;;;;;;;;;;;;;;;5093380;28;1300;-71
2023/09/13 14:35:51;;;;;;;;;;;;;;;;;;5095125;28;952;-72
2023/09/13 14:38:20;;;;;;;;;;;;;;;;;;5092367;28;1021;-71
2023/09/13 14:40:45;;;;;;;;;;;;;;;;;;5092726;28;1350;-71
2023/09/13 14:43:11;;;;;;;;;;;;;;;;;;5093724;28;827;-72
2023/09/13 14:45:36;;;;;;;;;;;;;;;;;;5092446;28;1212;-71
2023/09/13 14:48:01;;;;;;;;;;;;;;;;;;5093403;28;868;-71
2023/09/13 14:50:26;;;;;;;;;;;;;;;;;;5094176;28;1894;-72
2023/09/13 14:52:52;;;;;;;;;;;;;;;;;;5093415;28;879;-71
2023/09/13 14:55:17;;;;;;;;;;;;;;;;;;5093004;28;808;-72
2023/09/13 14:57:42;;;;;;;;;;;;;;;;;;5093207;28;1202;-71
2023/09/13 15:00:10;;;;;;;;;;;;;;;;;;5092708;28;1172;-72
2023/09/13 15:02:39;;;;;;;;;;;;;;;;;;5093209;28;891;-72
2023/09/13 15:05:05;;;;;;;;;;;;;;;;;;5092615;28;1178;-71
2023/09/13 15:07:30;;;;;;;;;;;;;;;;;;5093667;28;825;-71
2023/09/13 15:09:58;;;;;;;;;;;;;;;;;;5094261;28;1906;-71
2023/09/13 15:12:23;;;;;;;;;;;;;;;;;;5092731;28;911;-72
2023/09/13 15:14:48;;;;;;;;;;;;;;;;;;5093349;28;821;-72
2023/09/13 15:17:14;;;;;;;;;;;;;;;;;;5090974;28;1186;-71
2023/09/13 15:19:39;;;;;;;;;;;;;;;;;;5092161;28;852;-71
2023/09/13 15:22:04;;;;;;;;;;;;;;;;;;5093136;28;844;-71
2023/09/13 15:24:34;;;;;;;;;;;;;;;;;;5091733;28;1456;-72
2023/09/13 15:26:59;;;;;;;;;;;;;;;;;;5091451;28;1296;-71
2023/09/13 15:29:24;;;;;;;;;;;;;;;;;;5092837;28;1890;-72
2023/09/13 15:31:50;;;;;;;;;;;;;;;;;;5091750;28;1385;-72
2023/09/13 15:34:15;;;;;;;;;;;;;;;;;;5092866;28;844;-73
2023/09/13 15:36:41;;;;;;;;;;;;;;;;;;5091374;28;1040;-72
2023/09/13 15:39:09;;;;;;;;;;;;;;;;;;5092454;28;892;-71
2023/09/13 15:41:34;;;;;;;;;;;;;;;;;;5093545;28;867;-71
2023/09/13 15:43:59;;;;;;;;;;;;;;;;;;5091788;28;821;-72
2023/09/13 15:46:24;;;;;;;;;;;;;;;;;;5092060;28;872;-71
2023/09/13 15:48:50;;;;;;;;;;;;;;;;;;5092520;28;848;-72
2023/09/13 15:51:15;;;;;;;;;;;;;;;;;;5092895;28;1961;-72
2023/09/13 15:53:42;;;;;;;;;;;;;;;;;;5092726;28;879;-72
2023/09/13 15:56:07;;;;;;;;;;;;;;;;;;5091155;28;1271;-72
2023/09/13 15:58:32;;;;;;;;;;;;;;;;;;5074568;28;1294;-72
2023/09/13 16:00:58;;;;;;;;;;;;;;;;;;5092293;28;1084;-72
2023/09/13 16:03:23;;;;;;;;;;;;;;;;;;5092492;28;876;-72
2023/09/13 16:05:49;;;;;;;;;;;;;;;;;;5092424;28;813;-72
2023/09/13 16:08:14;;;;;;;;;;;;;;;;;;5092277;28;935;-72
2023/09/13 16:10:40;;;;;;;;;;;;;;;;;;5093203;28;1910;-71
2023/09/13 16:13:06;;;;;;;;;;;;;;;;;;5091842;28;867;-71
2023/09/13 16:15:31;;;;;;;;;;;;;;;;;;5091919;28;848;-72
2023/09/13 16:17:56;;;;;;;;;;;;;;;;;;5093080;28;906;-70
2023/09/13 16:20:22;;;;;;;;;;;;;;;;;;5093536;28;849;-70
2023/09/13 16:22:49;;;;;;;;;;;;;;;;;;5076095;28;1470;-71
2023/09/13 16:25:16;;;;;;;;;;;;;;;;;;5093284;28;879;-70
2023/09/13 16:27:41;;;;;;;;;;;;;;;;;;5093229;28;864;-71
2023/09/13 16:30:08;;;;;;;;;;;;;;;;;;5090473;28;1898;-70
2023/09/13 16:32:34;;;;;;;;;;;;;;;;;;5090555;28;1354;-70
2023/09/13 16:34:59;;;;;;;;;;;;;;;;;;5091051;28;1476;-70
2023/09/13 16:37:24;;;;;;;;;;;;;;;;;;5092862;28;912;-70
2023/09/13 16:39:50;;;;;;;;;;;;;;;;;;5092796;28;903;-70
2023/09/13 16:42:15;;;;;;;;;;;;;;;;;;5092363;28;844;-70
2023/09/13 16:44:41;;;;;;;;;;;;;;;;;;5091131;28;1115;-70
2023/09/13 16:47:06;;;;;;;;;;;;;;;;;;5092473;28;963;-69
2023/09/13 16:49:31;;;;;;;;;;;;;;;;;;5091436;28;1981;-69
2023/09/13 16:51:57;;;;;;;;;;;;;;;;;;5105552;28;1230;-69
2023/09/13 16:54:22;;;;;;;;;;;;;;;;;;5109205;28;1140;-68
2023/09/13 16:56:48;;;;;;;;;;;;;;;;;;5112111;28;952;-69
2023/09/13 16:59:13;;;;;;;;;;;;;;;;;;5112301;28;1416;-69
2023/09/13 17:01:39;;;;;;;;;;;;;;;;;;5112384;28;906;-69
2023/09/13 17:04:04;;;;;;;;;;;;;;;;;;5110718;28;1265;-70
2023/09/13 17:06:30;;;;;;;;;;;;;;;;;;5111078;28;1224;-70